De hemel in Utrecht
© Sotto le Stelle
Rivierenwijk, Utrecht  De hemel in Utrecht</br>© Sotto le Stelle</br>Rivierenwijk, Utrecht


Horizontaal 360° beeld  Horizontaal 360° beeld


U vindt ons ook hier:

Het Weer Aktueel

European Weather Network

Weather Underground

AWEKAS

WeatherlinkIP

HAMweather, WeatherForYou, PWS Weather


METAR rapporten vliegvelden

   
EHAM - Amsterdam/Schiph, Netherlands
Afstand tot: NW 32 km
Gewijzigd: 23-10-2017 00:25
Grotendeels bewolkt  
Grotendeels bewolkt  
   Wind: Westen 24.1 km/h
Wind: Westen 24.1 km/h
Temperatuur: 12°C
Dauwpunt: 10°C
Vochtigheid: 88%
Barometer: 1013 hPa
Bewolking: Grotendeels bewolkt
Zicht: meer dan 10 km
Bewolking: Licht bewolkt 1800 ft,
Gedeeltelijk bewolkt 2200 ft,
Grotendeels bewolkt 3400 ft
EHAM 222225Z 26013KT 9999 FEW018TCU SCT022 BKN034 12/10 Q1013 NOSIG
EHRD - Rotterdam Airpor, Netherlands
Afstand tot: WZW 45 km
Gewijzigd: 23-10-2017 00:25
Bewolking  
Bewolking  
   Wind: Westen 16.7 km/h
Wind: Westen 16.7 km/h
Temperatuur: 11°C
Dauwpunt: 9°C
Vochtigheid: 88%
Barometer: 1014 hPa
Bewolking: Bewolking
Zicht: meer dan 10 km
Bewolking: Grotendeels bewolkt 2200 ft,
Grotendeels bewolkt 2700 ft,
Bewolking 3300 ft
EHRD 222225Z AUTO 26009KT 230V300 9999 BKN022 BKN027 OVC033 11/09 Q1014 NOSIG
EHDL - Deelen Rnlafb, Netherlands
Afstand tot: O 55 km
Gewijzigd: 23-10-2017 00:25
Heavy Drizzle, Grotendeels bewolkt  
Heavy Drizzle, Grotendeels bewolkt  
   Wind: ZW 18.5 km/h
Wind: ZW 18.5 km/h
Temperatuur: 10°C
Voelt als: 8°C
Dauwpunt: 9°C
Vochtigheid: 94%
Barometer: 1013 hPa
Bewolking: Grotendeels bewolkt
Zicht: 3 km
Bewolking: Licht bewolkt 500 ft,
Grotendeels bewolkt 700 ft,
Grotendeels bewolkt 900 ft,
Licht bewolkt 1500 ft
EHDL 222225Z AUTO 23010KT 190V270 3300 +DZ FEW005 BKN007 BKN009 FEW015CB 10/09 Q1013 BLACKYLO
EHGR - Gilze-Rijen Rnla, Netherlands
Afstand tot: Z 59 km
Gewijzigd: 23-10-2017 00:39
Bewolking  
Bewolking  
   Wind: ZW 11.1 km/h
Wind: ZW 11.1 km/h
Temperatuur: 10°C
Voelt als: 8°C
Dauwpunt: 8°C
Vochtigheid: 88%
Barometer: 1015 hPa
Bewolking: Bewolking
Zicht: meer dan 10 km
Bewolking: Licht bewolkt 2400 ft,
Grotendeels bewolkt 2800 ft,
Bewolking 3100 ft
EHGR 222239Z AUTO 22006KT 200V260 9999 FEW024 BKN028 OVC031 10/08 Q1015 BLU
EHVK - Volkel Rnlafb, Netherlands
Afstand tot: ZO 67 km
Gewijzigd: 23-10-2017 00:25
Bewolking  
Bewolking  
   Wind: ZW 18.5 km/h
Wind: ZW 18.5 km/h
Temperatuur: 9°C
Voelt als: 6°C
Dauwpunt: 8°C
Vochtigheid: 94%
Barometer: 1014 hPa
Bewolking: Bewolking
Zicht: meer dan 10 km
Bewolking: Licht bewolkt 3400 ft,
Grotendeels bewolkt 3900 ft,
Bewolking 4400 ft
EHVK 222225Z AUTO 23010KT 9999 FEW034 BKN039 OVC044 09/08 Q1014 BLU
EHEH - Eindhoven Rnlafb, Netherlands
Afstand tot: ZZO 74 km
Gewijzigd: 23-10-2017 00:25
Bewolking  
Bewolking  
   Wind: ZW 20.4 km/h
Wind: ZW 20.4 km/h
Temperatuur: 10°C
Voelt als: 7°C
Dauwpunt: 7°C
Vochtigheid: 82%
Barometer: 1015 hPa
Bewolking: Bewolking
Zicht: meer dan 10 km
Bewolking: Licht bewolkt 3100 ft,
Bewolking 4300 ft
EHEH 222225Z AUTO 22011KT 9999 FEW031 OVC043 10/07 Q1015 BLU

Script ontwikkeld door  Saratoga-weather.org Aangepast voor de template door  Weerstation Leuven

Apparatuur in gebruik:

Weerstation
Davis VP2 Plus (Wireless)

Weerprogramma
Cumulus

Weercomputer
Shuttle Inc. SFM27

Webleverancier
Antagonist Webhosting

Davis VP2 Plus (Wireless)

Cumulus

Shuttle Inc. SFM27

Antagonist Webhosting